Terminal Aerodrome Forecast
Issued by NWS Sioux Falls, SD

Home | Current Version | Previous Version | Text Only | Print | Product List | Glossary Off
Versions: 1 2 3 4 5 6 7 8 9 10 11 12 13 14 15 16

000
FTUS43 KFSD 231649 AAA
TAFSUX
TAF AMD
KSUX 231649Z 2317/2412 16012KT P6SM BKN015 OVC100
      TEMPO 2317/2319 4SM TSRA OVC010CB
     FM240000 19011KT P6SM OVC070
      TEMPO 2400/2402 6SM TSRA OVC035CB
     FM240200 15005KT P6SM SCT035 BKN110
     FM240800 33005KT P6SM BKN140=

USA.gov is the U.S. government's official web portal to all federal, state and local government web resources and services.